Time;durP1;ratioP1;P1;durP2;ratioP2;P2;SDS_P1;SDS_P2;PMS_P1;PMS_P2;Temp;Humidity;BMP_temperature;BMP_pressure;BME280_temperature;BME280_humidity;BME280_pressure;Samples;Min_cycle;Max_cycle;Signal;HPM_P1;HPM_P2
2022/05/18 00:15:23;;;;;;;;;;;;;;;;;;;;;
2022/05/18 00:30:42;;;;;;;;;;;;;;;;;;;;;
2022/05/18 00:33:27;;;;;;;;;;;19.40;72.30;;;;;;6361884;22;19902;-87
2022/05/18 00:45:12;;;;;;;;;;;19.20;99.90;;;;;;6354276;22;19963;-86
2022/05/18 00:48:08;;;;;;;;;;;19.20;99.90;;;;;;6343163;22;19933;-87
2022/05/18 00:50:52;;;;;;;;;;;19.10;99.90;;;;;;6370753;22;19902;-86
2022/05/18 00:53:23;;;;;;;;;;;19.10;99.90;;;;;;6371667;22;19902;-87
2022/05/18 01:02:16;;;;;;;;;;;19.00;99.90;;;;;;6326235;22;19973;-86
2022/05/18 01:17:35;;;;;;;;;;;;;;;;;;;;;
2022/05/18 01:20:18;;;;;;;;;;;18.70;1.00;;;;;;6370895;22;19981;-85
2022/05/18 01:50:56;;;;;;;;;;;18.20;99.90;;;;;;6354082;22;19903;-86
2022/05/18 01:54:02;;;;;;;;;;;18.20;99.90;;;;;;6342863;22;19989;-86
2022/05/18 02:14:56;;;;;;;;;;;17.90;1.00;;;;;;6348454;22;19909;-87
2022/05/18 02:30:18;;;;;;;;;;;;;;;;;;;;;
2022/05/18 03:11:34;;;;;;;;;;;17.40;99.90;;;;;;6373938;22;19902;-86
2022/05/18 03:17:25;;;;;;;;;;;17.30;99.90;;;;;;6352001;22;19929;-86
2022/05/18 03:35:19;;;;;;;;;;;17.40;1.00;;;;;;6351364;22;19903;-87
2022/05/18 03:47:13;;;;;;;;;;;;;;;;;;;;;
2022/05/18 04:02:42;;;;;;;;;;;;;;;;;;;;;
2022/05/18 04:05:37;;;;;;;;;;;;;;;;;;;;;
2022/05/18 04:20:59;;;;;;;;;;;;;;;;;;;;;
2022/05/18 04:23:38;;;;;;;;;;;;;;;;;;;;;
2022/05/18 04:41:11;;;;;;;;;;;18.00;1.00;;;;;;6325361;22;19979;-86
2022/05/18 05:47:28;;;;;;;;;;;;;;;;;;;;;
2022/05/18 05:50:35;;;;;;;;;;;22.90;99.90;;;;;;6377826;22;20367;-87
2022/05/18 05:53:51;;;;;;;;;;;;;;;;;;;;;
2022/05/18 05:59:40;;;;;;;;;;;30.60;99.90;;;;;;6353133;22;19910;-85
2022/05/18 06:02:35;;;;;;;;;;;33.60;99.90;;;;;;6341810;22;19955;-85
2022/05/18 06:20:52;;;;;;;;;;;42.60;99.90;;;;;;6356280;22;19910;-82
2022/05/18 06:27:05;;;;;;;;;;;42.60;99.90;;;;;;6355098;22;19927;-82
2022/05/18 06:32:53;;;;;;;;;;;46.20;99.90;;;;;;6341806;22;20339;-85
2022/05/18 06:35:52;;;;;;;;;;;;;;;;;;;;;
2022/05/18 06:51:21;;;;;;;;;;;;;;;;;;;;;
2022/05/18 06:53:49;;;;;;;;;;;;;;;;;;;;;
2022/05/18 07:02:55;;;;;;;;;;;50.70;99.90;;;;;;6351116;22;19941;-85
2022/05/18 07:08:42;;;;;;;;;;;52.00;99.90;;;;;;6354512;22;19925;-88
2022/05/18 07:17:36;;;;;;;;;;;53.30;99.90;;;;;;6345234;22;20349;-87
2022/05/18 07:20:43;;;;;;;;;;;53.80;99.90;;;;;;6327203;22;19912;-86
2022/05/18 07:41:13;;;;;;;;;;;51.60;99.90;;;;;;6354018;22;19944;-85
2022/05/18 07:46:33;;;;;;;;;;;52.50;99.90;;;;;;6343766;22;19906;-84
2022/05/18 07:49:13;;;;;;;;;;;52.50;99.90;;;;;;6373231;22;19913;-86
2022/05/18 07:51:48;;;;;;;;;;;;;;;;;;;;;
2022/05/18 07:54:21;;;;;;;;;;;50.90;99.90;;;;;;6375978;22;19973;-87
2022/05/18 07:56:50;;;;;;;;;;;50.60;99.90;;;;;;6377650;22;19977;-87
2022/05/18 08:02:32;;;;;;;;;;;;;;;;;;;;;
2022/05/18 08:08:22;;;;;;;;;;;;;;;;;;;;;
2022/05/18 08:25:34;;;;;;;;;;;49.80;99.90;;;;;;6375068;22;20396;-85
2022/05/18 08:28:22;;;;;;;;;;;48.60;99.90;;;;;;6381677;22;19902;-84
2022/05/18 08:45:47;;;;;;;;;;;;;;;;;;;;;
2022/05/18 08:48:43;;;;;;;;;;;;;;;;;;;;;
2022/05/18 08:51:43;;;;;;;;;;;;;;;;;;;;;
2022/05/18 08:54:39;;;;;;;;;;;;;;;;;;;;;
2022/05/18 09:00:52;;;;;;;;;;;;;;;;;;;;;
2022/05/18 09:06:53;;;;;;;;;;;;;;;;;;;;;
2022/05/18 09:12:34;;;;;;;;;;;54.20;99.90;;;;;;6338991;22;19903;-85
2022/05/18 09:18:12;;;;;;;;;;;54.20;99.90;;;;;;6366266;22;19922;-85
2022/05/18 09:29:51;;;;;;;;;;;53.80;99.90;;;;;;6370302;22;19946;-85
2022/05/18 09:32:35;;;;;;;;;;;53.60;99.90;;;;;;6384659;22;19974;-84
2022/05/18 09:35:14;;;;;;;;;;;53.60;99.90;;;;;;6356456;22;19906;-84
2022/05/18 09:37:46;;;;;;;;;;;53.70;99.90;;;;;;6358178;22;19903;-86
2022/05/18 09:40:14;;;;;;;;;;;53.70;99.90;;;;;;6384524;22;19913;-84
2022/05/18 09:42:46;;;;;;;;;;;53.70;99.90;;;;;;6356123;22;19906;-85
2022/05/18 09:45:17;;;;;;;;;;;53.70;99.90;;;;;;6373737;22;19955;-85
2022/05/18 09:48:02;;;;;;;;;;;53.70;99.90;;;;;;6370958;22;19902;-84
2022/05/18 09:50:28;;;;;;;;;;;53.70;99.90;;;;;;6341334;22;19910;-83
2022/05/18 09:52:56;;;;;;;;;;;53.30;99.90;;;;;;6378647;22;19902;-85
2022/05/18 09:55:27;;;;;;;;;;;53.30;99.90;;;;;;6380919;22;20350;-85
2022/05/18 09:58:03;;;;;;;;;;;53.10;99.90;;;;;;6354234;22;19942;-84
2022/05/18 10:00:33;;;;;;;;;;;53.00;99.90;;;;;;6354762;22;19922;-85
2022/05/18 10:08:59;;;;;;;;;;;51.70;99.90;;;;;;6383191;22;19913;-84
2022/05/18 10:11:49;;;;;;;;;;;51.10;99.90;;;;;;6352740;22;19902;-84
2022/05/18 10:23:41;;;;;;;;;;;52.20;99.90;;;;;;6362517;22;19954;-84
2022/05/18 10:26:12;;;;;;;;;;;52.00;99.90;;;;;;6383900;22;19938;-85
2022/05/18 10:32:22;;;;;;;;;;;;;;;;;;;;;
2022/05/18 10:38:23;;;;;;;;;;;51.20;99.90;;;;;;6362016;22;19906;-84
2022/05/18 10:50:08;;;;;;;;;;;52.00;99.90;;;;;;6351887;22;19909;-84
2022/05/18 10:52:51;;;;;;;;;;;50.50;99.90;;;;;;6342933;22;19981;-84
2022/05/18 11:01:16;;;;;;;;;;;50.40;99.90;;;;;;6367353;22;19903;-85
2022/05/18 11:04:18;;;;;;;;;;;50.30;99.90;;;;;;6350322;22;19947;-84
2022/05/18 11:07:22;;;;;;;;;;;;;;;;;;;;;
2022/05/18 11:13:38;;;;;;;;;;;49.80;99.90;;;;;;6360238;22;19906;-84
2022/05/18 11:28:31;;;;;;;;;;;48.90;98.30;;;;;;6347957;22;19934;-84
2022/05/18 11:31:25;;;;;;;;;;;;;;;;;;;;;
2022/05/18 11:33:53;;;;;;;;;;;48.20;99.90;;;;;;6378434;22;19934;-84
2022/05/18 11:37:10;;;;;;;;;;;;;;;;;;;;;
2022/05/18 11:39:45;;;;;;;;;;;48.00;96.00;;;;;;6218373;23;20461;-85
2022/05/18 11:42:10;;;;;;;;;;;48.10;95.70;;;;;;6196675;23;19974;-85
2022/05/18 11:50:42;;;;;;;;;;;47.10;95.10;;;;;;6352023;22;19998;-85
2022/05/18 11:53:36;;;;;;;;;;;46.90;95.00;;;;;;6345662;22;19902;-84
2022/05/18 11:56:18;;;;;;;;;;;46.20;94.20;;;;;;6304131;22;20613;-84
2022/05/18 12:02:15;;;;;;;;;;;46.40;95.50;;;;;;6332548;22;19903;-85
2022/05/18 12:05:00;;;;;;;;;;;;;;;;;;;;;
2022/05/18 12:07:51;;;;;;;;;;;46.50;96.50;;;;;;6375365;22;19930;-84
2022/05/18 12:13:41;;;;;;;;;;;46.50;97.20;;;;;;6206530;23;20365;-83
2022/05/18 12:16:24;;;;;;;;;;;46.70;97.70;;;;;;6196652;23;19934;-83
2022/05/18 12:19:00;;;;;;;;;;;;;;;;;;;;;
2022/05/18 12:21:53;;;;;;;;;;;;;;;;;;;;;
2022/05/18 12:24:25;;;;;;;;;;;43.40;92.10;;;;;;6372718;22;19977;-84
2022/05/18 12:27:01;;;;;;;;;;;;;;;;;;;;;
2022/05/18 12:29:35;;;;;;;;;;;44.10;93.90;;;;;;6371212;22;19950;-84
2022/05/18 12:32:11;;;;;;;;;;;;;;;;;;;;;
2022/05/18 12:34:54;;;;;;;;;;;43.60;93.80;;;;;;6374788;22;19937;-83
2022/05/18 12:37:43;;;;;;;;;;;43.20;93.80;;;;;;6344945;22;19909;-83
2022/05/18 12:40:14;;;;;;;;;;;43.10;93.70;;;;;;6325525;22;19902;-83
2022/05/18 12:42:42;;;;;;;;;;;43.00;94.50;;;;;;6378110;22;19903;-83
2022/05/18 12:45:21;;;;;;;;;;;42.90;94.70;;;;;;6378634;22;19906;-83
2022/05/18 12:47:52;;;;;;;;;;;43.00;95.00;;;;;;6349640;22;19936;-83
2022/05/18 12:50:39;;;;;;;;;;;43.20;95.40;;;;;;6349277;22;19977;-83
2022/05/18 12:53:12;;;;;;;;;;;42.60;94.40;;;;;;6348241;22;19925;-83
2022/05/18 12:55:39;;;;;;;;;;;41.70;93.30;;;;;;6374515;22;19914;-83
2022/05/18 12:58:08;;;;;;;;;;;40.70;92.30;;;;;;6376064;22;19913;-83
2022/05/18 13:00:39;;;;;;;;;;;40.40;92.10;;;;;;6374181;22;19902;-82
2022/05/18 13:03:07;;;;;;;;;;;40.70;93.20;;;;;;6377554;22;19981;-83
2022/05/18 13:05:39;;;;;;;;;;;40.80;93.90;;;;;;6377350;22;20256;-83
2022/05/18 13:08:17;;;;;;;;;;;40.60;93.80;;;;;;6378234;22;19924;-83
2022/05/18 13:11:01;;;;;;;;;;;40.90;94.20;;;;;;6349157;22;19921;-84
2022/05/18 13:13:27;;;;;;;;;;;41.40;95.20;;;;;;6347772;22;20244;-83
2022/05/18 13:15:52;;;;;;;;;;;41.80;96.40;;;;;;6348807;22;19906;-83
2022/05/18 13:18:19;;;;;;;;;;;42.10;97.60;;;;;;6349305;22;19951;-84
2022/05/18 13:20:47;;;;;;;;;;;42.30;97.80;;;;;;6347995;22;19906;-83
2022/05/18 13:23:19;;;;;;;;;;;42.00;96.90;;;;;;6348677;22;19917;-83
2022/05/18 13:25:48;;;;;;;;;;;42.10;97.70;;;;;;6348745;22;19913;-83
2022/05/18 13:28:14;;;;;;;;;;;42.30;97.20;;;;;;6348347;22;19928;-83
2022/05/18 13:30:44;;;;;;;;;;;42.30;97.60;;;;;;6348414;22;19902;-83
2022/05/18 13:33:11;;;;;;;;;;;42.20;97.50;;;;;;6349137;22;19972;-83
2022/05/18 13:35:36;;;;;;;;;;;41.90;97.50;;;;;;6376658;22;20392;-83
2022/05/18 13:38:02;;;;;;;;;;;41.50;96.50;;;;;;6349529;22;19997;-83
2022/05/18 13:40:28;;;;;;;;;;;40.50;94.50;;;;;;6377999;22;19937;-84
2022/05/18 13:43:00;;;;;;;;;;;39.50;92.60;;;;;;6349624;22;19902;-84
2022/05/18 13:45:30;;;;;;;;;;;38.80;99.90;;;;;;6350070;22;19902;-84
2022/05/18 13:47:56;;;;;;;;;;;38.70;92.80;;;;;;6350586;22;19938;-83
2022/05/18 13:50:27;;;;;;;;;;;38.80;94.40;;;;;;6376602;22;19902;-82
2022/05/18 13:52:55;;;;;;;;;;;39.00;96.40;;;;;;6348692;22;19985;-83
2022/05/18 13:55:22;;;;;;;;;;;38.80;96.20;;;;;;6349180;22;19906;-83
2022/05/18 13:58:07;;;;;;;;;;;38.80;96.50;;;;;;6350294;22;19929;-83
2022/05/18 14:00:38;;;;;;;;;;;38.50;96.40;;;;;;6350655;22;20347;-85
2022/05/18 14:03:04;;;;;;;;;;;37.50;94.70;;;;;;6379210;22;20245;-83
2022/05/18 14:05:31;;;;;;;;;;;37.40;95.30;;;;;;6350171;22;19902;-83
2022/05/18 14:07:56;;;;;;;;;;;37.60;96.70;;;;;;6378550;22;20246;-83
2022/05/18 14:10:24;;;;;;;;;;;37.60;97.30;;;;;;6351970;22;19906;-83
2022/05/18 14:12:54;;;;;;;;;;;37.80;98.10;;;;;;6350675;22;20271;-83
2022/05/18 14:15:20;;;;;;;;;;;38.00;98.30;;;;;;6380233;22;19913;-83
2022/05/18 14:17:46;;;;;;;;;;;38.00;98.40;;;;;;6349515;22;19906;-83
2022/05/18 14:20:23;;;;;;;;;;;38.00;98.60;;;;;;6351536;22;19902;-83
2022/05/18 14:22:52;;;;;;;;;;;38.00;99.60;;;;;;6350167;22;19910;-84
2022/05/18 14:25:19;;;;;;;;;;;37.80;99.40;;;;;;6378285;22;19990;-83
2022/05/18 14:27:48;;;;;;;;;;;37.60;99.90;;;;;;6375910;22;19906;-83
2022/05/18 14:30:15;;;;;;;;;;;37.60;99.60;;;;;;6375924;22;19908;-83
2022/05/18 14:32:50;;;;;;;;;;;37.70;99.90;;;;;;6347979;22;19902;-84
2022/05/18 14:35:17;;;;;;;;;;;37.70;99.90;;;;;;6346287;22;19941;-83
2022/05/18 14:37:48;;;;;;;;;;;37.70;99.90;;;;;;6374697;22;19942;-85
2022/05/18 14:40:17;;;;;;;;;;;37.80;99.90;;;;;;6348605;22;19902;-83
2022/05/18 14:42:45;;;;;;;;;;;38.00;99.90;;;;;;6349646;22;19928;-84
2022/05/18 14:45:17;;;;;;;;;;;38.10;99.90;;;;;;6345411;22;19902;-84
2022/05/18 14:47:45;;;;;;;;;;;38.20;99.90;;;;;;6373205;22;19954;-84
2022/05/18 14:50:21;;;;;;;;;;;38.30;99.90;;;;;;6348564;22;20289;-83
2022/05/18 14:53:00;;;;;;;;;;;38.40;99.90;;;;;;6374794;22;19980;-83
2022/05/18 14:55:26;;;;;;;;;;;38.40;99.90;;;;;;6346048;22;19906;-83
2022/05/18 14:57:52;;;;;;;;;;;38.40;99.90;;;;;;6347988;22;20168;-82
2022/05/18 15:00:19;;;;;;;;;;;38.50;99.90;;;;;;6348711;22;19937;-81
2022/05/18 15:02:47;;;;;;;;;;;38.40;99.90;;;;;;6348036;22;19906;-83
2022/05/18 15:05:24;;;;;;;;;;;38.20;99.90;;;;;;6348027;22;19979;-83
2022/05/18 15:07:52;;;;;;;;;;;38.10;99.90;;;;;;6375511;22;19995;-83
2022/05/18 15:10:46;;;;;;;;;;;37.90;99.90;;;;;;6382949;22;19906;-84
2022/05/18 15:13:22;;;;;;;;;;;37.60;99.90;;;;;;6325534;22;19902;-83
2022/05/18 15:15:53;;;;;;;;;;;37.60;99.90;;;;;;6348110;22;20380;-83
2022/05/18 15:18:41;;;;;;;;;;;37.50;99.90;;;;;;6377135;22;20259;-83
2022/05/18 15:21:07;;;;;;;;;;;37.30;99.90;;;;;;6329443;22;19903;-84
2022/05/18 15:23:35;;;;;;;;;;;37.20;99.90;;;;;;6347806;22;19946;-84
2022/05/18 15:26:02;;;;;;;;;;;37.10;99.90;;;;;;6348647;22;19909;-86
2022/05/18 15:28:36;;;;;;;;;;;37.00;99.90;;;;;;6348906;22;19913;-83
2022/05/18 15:31:09;;;;;;;;;;;36.90;99.90;;;;;;6347868;22;19913;-83
2022/05/18 15:33:37;;;;;;;;;;;36.70;99.90;;;;;;6379430;22;19909;-86
2022/05/18 15:36:03;;;;;;;;;;;36.40;99.90;;;;;;6352783;22;19906;-84
2022/05/18 15:38:30;;;;;;;;;;;36.10;99.90;;;;;;6381587;22;19902;-86
2022/05/18 15:40:57;;;;;;;;;;;36.10;99.90;;;;;;6352646;22;19902;-84
2022/05/18 15:43:22;;;;;;;;;;;36.20;99.90;;;;;;6356708;22;19909;-86
2022/05/18 15:45:50;;;;;;;;;;;36.20;99.90;;;;;;6356161;22;19902;-86
2022/05/18 15:48:19;;;;;;;;;;;36.10;99.90;;;;;;6358386;22;19976;-86
2022/05/18 15:50:44;;;;;;;;;;;36.10;99.90;;;;;;6384459;22;19906;-85
2022/05/18 15:53:17;;;;;;;;;;;36.00;99.90;;;;;;6359186;22;19938;-84
2022/05/18 15:55:45;;;;;;;;;;;35.90;99.90;;;;;;6356858;22;19914;-85
2022/05/18 15:58:11;;;;;;;;;;;35.70;99.90;;;;;;6352386;22;19908;-84
2022/05/18 16:00:37;;;;;;;;;;;35.50;99.90;;;;;;6379253;22;19926;-84
2022/05/18 16:03:02;;;;;;;;;;;35.20;99.90;;;;;;6380653;22;19906;-85
2022/05/18 16:05:28;;;;;;;;;;;35.00;99.90;;;;;;6381868;22;19903;-83
2022/05/18 16:08:02;;;;;;;;;;;34.80;99.90;;;;;;6351934;22;19913;-85
2022/05/18 16:10:29;;;;;;;;;;;34.40;99.90;;;;;;6380848;22;19917;-85
2022/05/18 16:13:15;;;;;;;;;;;34.10;99.90;;;;;;6352473;22;20313;-84
2022/05/18 16:15:44;;;;;;;;;;;34.10;99.90;;;;;;6353267;22;19910;-85
2022/05/18 16:18:09;;;;;;;;;;;34.00;99.90;;;;;;6352587;22;19909;-85
2022/05/18 16:20:35;;;;;;;;;;;33.90;99.90;;;;;;6383787;22;19904;-84
2022/05/18 16:23:01;;;;;;;;;;;34.00;99.90;;;;;;6387204;22;19910;-83
2022/05/18 16:25:28;;;;;;;;;;;34.00;99.90;;;;;;6390897;22;19925;-85
2022/05/18 16:27:54;;;;;;;;;;;34.10;99.90;;;;;;6379989;22;19906;-84
2022/05/18 16:30:20;;;;;;;;;;;33.90;99.90;;;;;;6379556;22;19951;-83
2022/05/18 16:32:45;;;;;;;;;;;33.90;99.90;;;;;;6379364;22;20351;-82
2022/05/18 16:35:11;;;;;;;;;;;33.60;99.90;;;;;;6380250;22;19906;-84
2022/05/18 16:37:37;;;;;;;;;;;33.50;99.90;;;;;;6380686;22;19906;-86
2022/05/18 16:40:03;;;;;;;;;;;33.40;99.90;;;;;;6379396;22;20351;-84
2022/05/18 16:42:29;;;;;;;;;;;33.20;99.90;;;;;;6349353;22;19959;-84
2022/05/18 16:44:54;;;;;;;;;;;33.00;99.90;;;;;;6376941;22;19902;-83
2022/05/18 16:47:21;;;;;;;;;;;32.90;99.90;;;;;;6349509;22;19924;-86
2022/05/18 16:49:46;;;;;;;;;;;32.70;99.90;;;;;;6376590;22;19902;-86
2022/05/18 16:52:12;;;;;;;;;;;32.50;99.90;;;;;;6377195;22;19909;-84
2022/05/18 16:54:38;;;;;;;;;;;32.40;99.90;;;;;;6376829;22;19906;-84
2022/05/18 16:57:04;;;;;;;;;;;32.30;99.90;;;;;;6377017;22;19910;-84
2022/05/18 16:59:31;;;;;;;;;;;32.00;99.90;;;;;;6348589;22;20265;-84
2022/05/18 17:01:57;;;;;;;;;;;31.90;99.90;;;;;;6376523;22;19971;-83
2022/05/18 17:04:23;;;;;;;;;;;31.90;99.90;;;;;;6377560;22;19902;-84
2022/05/18 17:06:49;;;;;;;;;;;31.80;99.90;;;;;;6348742;22;20053;-84
2022/05/18 17:09:17;;;;;;;;;;;31.70;99.90;;;;;;6378413;22;19903;-84
2022/05/18 17:11:47;;;;;;;;;;;31.70;99.90;;;;;;6349818;22;19909;-85
2022/05/18 17:14:15;;;;;;;;;;;31.80;99.90;;;;;;6350055;22;19902;-84
2022/05/18 17:16:44;;;;;;;;;;;31.80;99.90;;;;;;6348168;22;20336;-85
2022/05/18 17:19:10;;;;;;;;;;;31.80;99.90;;;;;;6377187;22;19909;-84
2022/05/18 17:21:35;;;;;;;;;;;31.80;99.90;;;;;;6376337;22;19906;-84
2022/05/18 17:24:01;;;;;;;;;;;31.80;99.90;;;;;;6348279;22;19914;-83
2022/05/18 17:26:31;;;;;;;;;;;31.80;99.90;;;;;;6348457;22;19951;-84
2022/05/18 17:29:00;;;;;;;;;;;31.70;99.90;;;;;;6349172;22;19959;-83
2022/05/18 17:31:26;;;;;;;;;;;31.60;99.90;;;;;;6377865;22;19903;-83
2022/05/18 17:33:51;;;;;;;;;;;31.40;99.90;;;;;;6377645;22;19985;-84
2022/05/18 17:36:17;;;;;;;;;;;31.30;99.90;;;;;;6375841;22;19949;-83
2022/05/18 17:38:42;;;;;;;;;;;31.20;99.90;;;;;;6375590;22;19907;-85
2022/05/18 17:41:08;;;;;;;;;;;31.20;99.90;;;;;;6376676;22;19910;-84
2022/05/18 17:43:33;;;;;;;;;;;31.20;99.90;;;;;;6348017;22;20032;-84
2022/05/18 17:46:00;;;;;;;;;;;31.10;99.90;;;;;;6379295;22;19906;-86
2022/05/18 17:48:26;;;;;;;;;;;31.00;99.90;;;;;;6373595;22;19971;-82
2022/05/18 17:50:53;;;;;;;;;;;31.00;99.90;;;;;;6347182;22;19938;-84
2022/05/18 17:53:18;;;;;;;;;;;30.90;99.90;;;;;;6347140;22;19924;-84
2022/05/18 17:55:44;;;;;;;;;;;30.90;99.90;;;;;;6348482;22;19981;-84
2022/05/18 17:58:10;;;;;;;;;;;30.80;99.90;;;;;;6375822;22;19902;-84
2022/05/18 18:00:36;;;;;;;;;;;30.80;99.90;;;;;;6374936;22;19933;-84
2022/05/18 18:03:03;;;;;;;;;;;30.70;99.90;;;;;;6347964;22;19955;-84
2022/05/18 18:05:29;;;;;;;;;;;30.70;99.90;;;;;;6349023;22;19958;-84
2022/05/18 18:07:57;;;;;;;;;;;30.60;99.90;;;;;;6354414;22;19984;-86
2022/05/18 18:10:23;;;;;;;;;;;30.60;99.90;;;;;;6356748;22;19902;-84
2022/05/18 18:12:49;;;;;;;;;;;30.50;99.90;;;;;;6345833;22;19903;-86
2022/05/18 18:15:14;;;;;;;;;;;30.40;99.90;;;;;;6382984;22;19913;-84
2022/05/18 18:17:41;;;;;;;;;;;30.30;99.90;;;;;;6346479;22;20315;-84
2022/05/18 18:20:09;;;;;;;;;;;30.20;99.90;;;;;;6375967;22;19902;-84
2022/05/18 18:22:36;;;;;;;;;;;30.20;99.90;;;;;;6374572;22;19910;-82
2022/05/18 18:25:04;;;;;;;;;;;30.10;99.90;;;;;;6374404;22;20240;-83
2022/05/18 18:27:35;;;;;;;;;;;30.00;99.90;;;;;;6344845;22;19936;-83
2022/05/18 18:30:04;;;;;;;;;;;29.90;99.90;;;;;;6346816;22;19938;-83
2022/05/18 18:32:30;;;;;;;;;;;29.80;99.90;;;;;;6346741;22;19952;-83
2022/05/18 18:34:55;;;;;;;;;;;29.70;99.90;;;;;;6373179;22;19902;-83
2022/05/18 18:37:22;;;;;;;;;;;29.60;99.90;;;;;;6345666;22;19909;-82
2022/05/18 18:39:49;;;;;;;;;;;29.50;99.90;;;;;;6372779;22;20000;-82
2022/05/18 18:42:15;;;;;;;;;;;29.40;99.90;;;;;;6345654;22;19910;-82
2022/05/18 18:44:43;;;;;;;;;;;29.30;99.90;;;;;;6373521;22;20247;-81
2022/05/18 18:47:09;;;;;;;;;;;29.30;99.90;;;;;;6344965;22;19934;-81
2022/05/18 18:49:35;;;;;;;;;;;29.20;99.90;;;;;;6345164;22;19909;-82
2022/05/18 18:54:54;;;;;;;;;;;29.00;99.90;;;;;;6374991;22;19924;-84
2022/05/18 18:57:35;;;;;;;;;;;28.90;99.90;;;;;;6346321;22;19902;-84
2022/05/18 19:00:08;;;;;;;;;;;28.80;99.90;;;;;;6373426;22;19926;-83
2022/05/18 19:02:33;;;;;;;;;;;28.70;99.90;;;;;;6373993;22;19954;-83
2022/05/18 19:04:59;;;;;;;;;;;28.50;99.90;;;;;;6373309;22;19936;-81
2022/05/18 19:07:24;;;;;;;;;;;28.50;99.90;;;;;;6347302;22;19902;-81
2022/05/18 19:09:59;;;;;;;;;;;28.40;99.90;;;;;;6376297;22;19916;-82
2022/05/18 19:12:24;;;;;;;;;;;28.30;99.90;;;;;;6376162;22;19902;-82
2022/05/18 19:14:51;;;;;;;;;;;28.20;99.90;;;;;;6347730;22;19937;-82
2022/05/18 19:17:16;;;;;;;;;;;28.10;99.90;;;;;;6347319;22;19902;-83
2022/05/18 19:19:42;;;;;;;;;;;28.00;99.90;;;;;;6375834;22;19903;-82
2022/05/18 19:22:07;;;;;;;;;;;27.90;99.90;;;;;;6376267;22;19938;-82
2022/05/18 19:24:33;;;;;;;;;;;27.80;99.90;;;;;;6376219;22;19924;-83
2022/05/18 19:26:58;;;;;;;;;;;27.70;99.90;;;;;;6375255;22;20244;-84
2022/05/18 19:29:24;;;;;;;;;;;27.60;99.90;;;;;;6348373;22;20237;-82
2022/05/18 19:31:50;;;;;;;;;;;27.60;99.90;;;;;;6375227;22;19932;-83
2022/05/18 19:34:17;;;;;;;;;;;27.50;99.90;;;;;;6347284;22;19902;-83
2022/05/18 19:36:43;;;;;;;;;;;27.40;99.90;;;;;;6375669;22;19930;-82
2022/05/18 19:39:08;;;;;;;;;;;27.30;99.90;;;;;;6375203;22;19903;-82
2022/05/18 19:41:34;;;;;;;;;;;27.30;99.90;;;;;;6375900;22;19909;-84
2022/05/18 19:44:00;;;;;;;;;;;27.20;99.90;;;;;;6375075;22;19923;-82
2022/05/18 19:46:27;;;;;;;;;;;27.10;99.90;;;;;;6348036;22;19951;-83
2022/05/18 19:48:52;;;;;;;;;;;27.00;99.90;;;;;;6374195;22;19982;-84
2022/05/18 19:51:18;;;;;;;;;;;26.90;99.90;;;;;;6379025;22;20327;-83
2022/05/18 19:53:44;;;;;;;;;;;26.90;99.90;;;;;;6352394;22;19973;-83
2022/05/18 19:56:10;;;;;;;;;;;26.80;99.90;;;;;;6379885;22;20378;-84
2022/05/18 19:58:36;;;;;;;;;;;26.80;99.90;;;;;;6353335;22;19909;-84
2022/05/18 20:01:03;;;;;;;;;;;26.70;99.90;;;;;;6380053;22;19903;-84
2022/05/18 20:03:28;;;;;;;;;;;26.70;99.90;;;;;;6352394;22;19909;-84
2022/05/18 20:05:54;;;;;;;;;;;26.60;99.90;;;;;;6350524;22;19910;-84
2022/05/18 20:08:20;;;;;;;;;;;26.50;99.90;;;;;;6378610;22;20233;-84
2022/05/18 20:10:46;;;;;;;;;;;26.50;99.90;;;;;;6379104;22;19986;-84
2022/05/18 20:13:12;;;;;;;;;;;26.40;99.90;;;;;;6379465;22;19902;-84
2022/05/18 20:15:37;;;;;;;;;;;26.40;99.90;;;;;;6351125;22;19984;-84
2022/05/18 20:18:03;;;;;;;;;;;26.30;99.90;;;;;;6378582;22;19903;-84
2022/05/18 20:20:30;;;;;;;;;;;26.20;99.90;;;;;;6378207;22;19910;-84
2022/05/18 20:22:57;;;;;;;;;;;26.10;99.90;;;;;;6376170;22;19949;-84
2022/05/18 20:25:23;;;;;;;;;;;25.90;99.90;;;;;;6346642;22;20400;-84
2022/05/18 20:27:53;;;;;;;;;;;25.80;99.90;;;;;;6345431;22;19903;-84
2022/05/18 20:30:19;;;;;;;;;;;25.70;99.90;;;;;;6375224;22;19946;-83
2022/05/18 20:32:44;;;;;;;;;;;25.50;99.90;;;;;;6377057;22;19902;-83
2022/05/18 20:35:10;;;;;;;;;;;25.50;99.90;;;;;;6377640;22;19959;-84
2022/05/18 20:37:35;;;;;;;;;;;25.40;99.90;;;;;;6375032;22;19902;-83
2022/05/18 20:40:01;;;;;;;;;;;25.30;99.90;;;;;;6375973;22;19909;-84
2022/05/18 20:42:27;;;;;;;;;;;25.30;99.90;;;;;;6378271;22;19913;-84
2022/05/18 20:44:54;;;;;;;;;;;25.20;99.90;;;;;;6375734;22;19941;-83
2022/05/18 20:47:21;;;;;;;;;;;25.30;99.90;;;;;;6343963;22;19967;-84
2022/05/18 20:49:46;;;;;;;;;;;25.30;99.90;;;;;;6371539;22;20371;-84
2022/05/18 20:52:12;;;;;;;;;;;25.20;99.90;;;;;;6344627;22;19909;-83
2022/05/18 20:54:37;;;;;;;;;;;25.20;99.90;;;;;;6375294;22;19907;-83
2022/05/18 20:57:03;;;;;;;;;;;25.20;99.90;;;;;;6374435;22;19906;-83
2022/05/18 20:59:29;;;;;;;;;;;25.20;99.90;;;;;;6376351;22;19950;-84
2022/05/18 21:01:54;;;;;;;;;;;25.10;99.90;;;;;;6349525;22;20695;-83
2022/05/18 21:04:20;;;;;;;;;;;25.10;99.90;;;;;;6351218;22;19902;-84
2022/05/18 21:06:46;;;;;;;;;;;25.00;99.90;;;;;;6385707;22;20336;-84
2022/05/18 21:09:12;;;;;;;;;;;25.00;99.90;;;;;;6362322;22;19935;-84
2022/05/18 21:11:38;;;;;;;;;;;25.00;99.90;;;;;;6371226;22;19906;-85
2022/05/18 21:14:05;;;;;;;;;;;24.90;99.90;;;;;;6344444;22;19909;-85
2022/05/18 21:16:31;;;;;;;;;;;24.90;99.90;;;;;;6343674;22;19902;-84
2022/05/18 21:18:57;;;;;;;;;;;24.80;99.90;;;;;;6371996;22;19975;-85
2022/05/18 21:21:22;;;;;;;;;;;24.70;99.90;;;;;;6371494;22;19971;-84
2022/05/18 21:23:47;;;;;;;;;;;24.70;99.90;;;;;;6370877;22;19921;-85
2022/05/18 21:26:14;;;;;;;;;;;24.70;99.90;;;;;;6343462;22;19906;-84
2022/05/18 21:28:43;;;;;;;;;;;24.70;99.90;;;;;;6374478;22;19911;-84
2022/05/18 21:31:15;;;;;;;;;;;24.70;99.90;;;;;;6347535;22;19908;-84
2022/05/18 21:33:41;;;;;;;;;;;24.70;99.90;;;;;;6373593;22;19902;-85
2022/05/18 21:36:16;;;;;;;;;;;24.70;99.90;;;;;;6374719;22;19933;-84
2022/05/18 21:38:42;;;;;;;;;;;24.60;99.90;;;;;;6371238;22;19963;-85
2022/05/18 21:41:08;;;;;;;;;;;24.60;99.90;;;;;;6373044;22;19902;-84
2022/05/18 21:43:33;;;;;;;;;;;24.60;99.90;;;;;;6347025;22;20272;-84
2022/05/18 21:45:59;;;;;;;;;;;24.50;99.90;;;;;;6373548;22;20185;-84
2022/05/18 21:48:27;;;;;;;;;;;24.50;99.90;;;;;;6344071;22;19902;-84
2022/05/18 21:50:52;;;;;;;;;;;24.40;99.90;;;;;;6372418;22;19924;-85
2022/05/18 21:53:18;;;;;;;;;;;24.40;99.90;;;;;;6348129;22;19906;-84
2022/05/18 21:55:43;;;;;;;;;;;24.30;99.90;;;;;;6374441;22;19909;-84
2022/05/18 21:58:11;;;;;;;;;;;24.30;99.90;;;;;;6371381;22;19913;-84
2022/05/18 22:00:36;;;;;;;;;;;24.30;99.90;;;;;;6372902;22;19913;-84
2022/05/18 22:03:06;;;;;;;;;;;24.30;99.90;;;;;;6347842;22;19907;-84
2022/05/18 22:05:32;;;;;;;;;;;24.20;99.90;;;;;;6349614;22;20240;-84
2022/05/18 23:40:03;;;;;;;;;;;22.40;99.90;;;;;;6377891;22;19951;-83
2022/05/18 23:42:29;;;;;;;;;;;22.30;99.90;;;;;;6349680;22;19922;-83
2022/05/18 23:44:57;;;;;;;;;;;22.10;99.90;;;;;;6350877;22;19909;-82
2022/05/18 23:47:23;;;;;;;;;;;22.00;99.90;;;;;;6351792;22;19926;-83
2022/05/18 23:49:48;;;;;;;;;;;21.80;99.90;;;;;;6351785;22;19924;-82
2022/05/18 23:52:14;;;;;;;;;;;21.70;99.90;;;;;;6378674;22;19926;-83
2022/05/18 23:54:40;;;;;;;;;;;21.60;99.90;;;;;;6379394;22;19902;-82
2022/05/18 23:57:26;;;;;;;;;;;21.50;99.90;;;;;;6379614;22;19906;-83
2022/05/18 23:59:53;;;;;;;;;;;21.40;99.90;;;;;;6350001;22;19902;-83
